sensor_id;sensor_type;location;lat;lon;timestamp;P1;durP1;ratioP1;P2;durP2;ratioP2
52898;SDS011;38763;53.096;6.062;2022-08-03T00:00:47;10.05;;;3.65;;
52898;SDS011;38763;53.096;6.062;2022-08-03T00:03:13;11.82;;;3.75;;
52898;SDS011;38763;53.096;6.062;2022-08-03T00:05:38;8.73;;;3.22;;
52898;SDS011;38763;53.096;6.062;2022-08-03T00:08:04;13.40;;;3.38;;
52898;SDS011;38763;53.096;6.062;2022-08-03T00:10:29;6.90;;;3.10;;
52898;SDS011;38763;53.096;6.062;2022-08-03T00:12:55;7.60;;;3.30;;
52898;SDS011;38763;53.096;6.062;2022-08-03T00:15:21;9.30;;;3.30;;
52898;SDS011;38763;53.096;6.062;2022-08-03T00:17:46;8.23;;;3.58;;
52898;SDS011;38763;53.096;6.062;2022-08-03T00:20:12;8.95;;;3.28;;
52898;SDS011;38763;53.096;6.062;2022-08-03T00:22:38;10.80;;;3.38;;
52898;SDS011;38763;53.096;6.062;2022-08-03T00:25:04;8.13;;;3.03;;
52898;SDS011;38763;53.096;6.062;2022-08-03T00:27:29;9.25;;;3.13;;
52898;SDS011;38763;53.096;6.062;2022-08-03T00:29:55;6.65;;;3.00;;
52898;SDS011;38763;53.096;6.062;2022-08-03T00:32:21;8.02;;;3.47;;
52898;SDS011;38763;53.096;6.062;2022-08-03T00:34:47;6.55;;;3.00;;
52898;SDS011;38763;53.096;6.062;2022-08-03T00:37:12;10.80;;;3.47;;
52898;SDS011;38763;53.096;6.062;2022-08-03T00:39:38;9.70;;;3.20;;
52898;SDS011;38763;53.096;6.062;2022-08-03T00:42:04;9.13;;;3.20;;
52898;SDS011;38763;53.096;6.062;2022-08-03T00:44:30;9.65;;;3.28;;
52898;SDS011;38763;53.096;6.062;2022-08-03T00:47:02;11.52;;;3.20;;
52898;SDS011;38763;53.096;6.062;2022-08-03T00:49:28;8.30;;;3.35;;
52898;SDS011;38763;53.096;6.062;2022-08-03T00:51:54;14.40;;;3.40;;
52898;SDS011;38763;53.096;6.062;2022-08-03T00:54:20;8.80;;;3.42;;
52898;SDS011;38763;53.096;6.062;2022-08-03T00:56:46;12.18;;;3.45;;
52898;SDS011;38763;53.096;6.062;2022-08-03T00:59:11;12.23;;;3.00;;
52898;SDS011;38763;53.096;6.062;2022-08-03T01:01:39;9.38;;;3.47;;
52898;SDS011;38763;53.096;6.062;2022-08-03T01:04:04;9.65;;;2.72;;
52898;SDS011;38763;53.096;6.062;2022-08-03T01:06:35;11.15;;;3.30;;
52898;SDS011;38763;53.096;6.062;2022-08-03T01:09:37;11.35;;;3.20;;
52898;SDS011;38763;53.096;6.062;2022-08-03T01:12:20;6.80;;;2.53;;
52898;SDS011;38763;53.096;6.062;2022-08-03T01:15:55;7.85;;;2.53;;
52898;SDS011;38763;53.096;6.062;2022-08-03T01:18:05;7.97;;;2.88;;
52898;SDS011;38763;53.096;6.062;2022-08-03T01:20:37;7.95;;;2.17;;
52898;SDS011;38763;53.096;6.062;2022-08-03T01:23:19;7.07;;;2.85;;
52898;SDS011;38763;53.096;6.062;2022-08-03T01:28:47;9.18;;;2.28;;
52898;SDS011;38763;53.096;6.062;2022-08-03T01:31:33;8.27;;;2.70;;
52898;SDS011;38763;53.096;6.062;2022-08-03T01:34:05;7.60;;;2.60;;
52898;SDS011;38763;53.096;6.062;2022-08-03T01:36:35;10.45;;;2.58;;
52898;SDS011;38763;53.096;6.062;2022-08-03T01:39:04;9.10;;;2.10;;
52898;SDS011;38763;53.096;6.062;2022-08-03T01:41:34;9.30;;;2.70;;
52898;SDS011;38763;53.096;6.062;2022-08-03T01:44:07;5.68;;;2.13;;
52898;SDS011;38763;53.096;6.062;2022-08-03T01:46:34;11.57;;;2.50;;
52898;SDS011;38763;53.096;6.062;2022-08-03T01:49:02;9.45;;;2.30;;
52898;SDS011;38763;53.096;6.062;2022-08-03T01:51:31;10.25;;;2.70;;
52898;SDS011;38763;53.096;6.062;2022-08-03T01:53:57;7.93;;;2.45;;
52898;SDS011;38763;53.096;6.062;2022-08-03T01:56:24;6.97;;;2.30;;
52898;SDS011;38763;53.096;6.062;2022-08-03T01:58:51;8.07;;;2.38;;
52898;SDS011;38763;53.096;6.062;2022-08-03T02:01:19;11.00;;;2.47;;
52898;SDS011;38763;53.096;6.062;2022-08-03T02:03:46;9.27;;;2.40;;
52898;SDS011;38763;53.096;6.062;2022-08-03T02:06:14;8.18;;;2.10;;
52898;SDS011;38763;53.096;6.062;2022-08-03T02:08:43;7.25;;;2.13;;
52898;SDS011;38763;53.096;6.062;2022-08-03T02:11:10;8.43;;;2.40;;
52898;SDS011;38763;53.096;6.062;2022-08-03T02:13:37;11.02;;;2.40;;
52898;SDS011;38763;53.096;6.062;2022-08-03T02:16:03;11.32;;;2.60;;
52898;SDS011;38763;53.096;6.062;2022-08-03T02:18:29;9.60;;;1.95;;
52898;SDS011;38763;53.096;6.062;2022-08-03T02:20:56;10.88;;;2.42;;
52898;SDS011;38763;53.096;6.062;2022-08-03T02:23:24;9.57;;;2.33;;
52898;SDS011;38763;53.096;6.062;2022-08-03T02:25:51;5.28;;;2.03;;
52898;SDS011;38763;53.096;6.062;2022-08-03T02:28:20;8.35;;;2.13;;
52898;SDS011;38763;53.096;6.062;2022-08-03T02:30:51;7.43;;;2.22;;
52898;SDS011;38763;53.096;6.062;2022-08-03T02:33:21;11.20;;;2.70;;
52898;SDS011;38763;53.096;6.062;2022-08-03T02:35:51;10.88;;;2.72;;
52898;SDS011;38763;53.096;6.062;2022-08-03T02:38:18;8.85;;;2.50;;
52898;SDS011;38763;53.096;6.062;2022-08-03T02:40:47;11.05;;;2.67;;
52898;SDS011;38763;53.096;6.062;2022-08-03T02:43:17;10.90;;;2.53;;
52898;SDS011;38763;53.096;6.062;2022-08-03T02:45:46;9.00;;;2.60;;
52898;SDS011;38763;53.096;6.062;2022-08-03T02:48:19;8.32;;;2.55;;
52898;SDS011;38763;53.096;6.062;2022-08-03T02:50:47;11.15;;;2.70;;
52898;SDS011;38763;53.096;6.062;2022-08-03T02:53:16;7.05;;;2.33;;
52898;SDS011;38763;53.096;6.062;2022-08-03T02:55:46;8.35;;;2.35;;
52898;SDS011;38763;53.096;6.062;2022-08-03T02:58:13;11.57;;;2.47;;
52898;SDS011;38763;53.096;6.062;2022-08-03T03:00:43;11.48;;;2.80;;
52898;SDS011;38763;53.096;6.062;2022-08-03T03:03:09;9.82;;;2.60;;
52898;SDS011;38763;53.096;6.062;2022-08-03T03:05:35;10.90;;;2.58;;
52898;SDS011;38763;53.096;6.062;2022-08-03T03:08:02;12.50;;;2.90;;
52898;SDS011;38763;53.096;6.062;2022-08-03T03:10:28;11.95;;;2.20;;
52898;SDS011;38763;53.096;6.062;2022-08-03T03:12:56;9.93;;;2.65;;
52898;SDS011;38763;53.096;6.062;2022-08-03T03:15:22;10.30;;;2.42;;
52898;SDS011;38763;53.096;6.062;2022-08-03T03:17:50;11.68;;;2.95;;
52898;SDS011;38763;53.096;6.062;2022-08-03T03:20:17;9.60;;;2.58;;
52898;SDS011;38763;53.096;6.062;2022-08-03T03:22:44;9.18;;;2.88;;
52898;SDS011;38763;53.096;6.062;2022-08-03T03:25:12;10.75;;;2.90;;
52898;SDS011;38763;53.096;6.062;2022-08-03T03:27:38;8.98;;;2.45;;
52898;SDS011;38763;53.096;6.062;2022-08-03T03:30:04;14.60;;;2.92;;
52898;SDS011;38763;53.096;6.062;2022-08-03T03:32:31;9.05;;;2.45;;
52898;SDS011;38763;53.096;6.062;2022-08-03T03:34:56;12.70;;;3.53;;
52898;SDS011;38763;53.096;6.062;2022-08-03T03:37:23;11.13;;;2.50;;
52898;SDS011;38763;53.096;6.062;2022-08-03T03:39:50;10.60;;;2.90;;
52898;SDS011;38763;53.096;6.062;2022-08-03T03:42:18;9.13;;;2.38;;
52898;SDS011;38763;53.096;6.062;2022-08-03T03:44:44;9.73;;;2.95;;
52898;SDS011;38763;53.096;6.062;2022-08-03T03:47:10;10.30;;;2.85;;
52898;SDS011;38763;53.096;6.062;2022-08-03T03:49:35;9.13;;;2.65;;
52898;SDS011;38763;53.096;6.062;2022-08-03T03:52:01;9.27;;;2.92;;
52898;SDS011;38763;53.096;6.062;2022-08-03T03:54:37;13.70;;;2.88;;
52898;SDS011;38763;53.096;6.062;2022-08-03T03:57:07;12.00;;;2.75;;
52898;SDS011;38763;53.096;6.062;2022-08-03T03:59:43;9.05;;;2.80;;
52898;SDS011;38763;53.096;6.062;2022-08-03T04:02:09;8.27;;;3.00;;
52898;SDS011;38763;53.096;6.062;2022-08-03T04:04:35;9.25;;;2.88;;
52898;SDS011;38763;53.096;6.062;2022-08-03T04:07:21;11.80;;;3.25;;
52898;SDS011;38763;53.096;6.062;2022-08-03T04:10:09;12.57;;;3.38;;
52898;SDS011;38763;53.096;6.062;2022-08-03T04:12:58;10.70;;;3.00;;
52898;SDS011;38763;53.096;6.062;2022-08-03T04:15:26;15.07;;;3.35;;
52898;SDS011;38763;53.096;6.062;2022-08-03T04:17:52;12.88;;;3.33;;
52898;SDS011;38763;53.096;6.062;2022-08-03T04:20:21;8.32;;;3.17;;
52898;SDS011;38763;53.096;6.062;2022-08-03T04:22:50;11.73;;;3.75;;
52898;SDS011;38763;53.096;6.062;2022-08-03T04:25:18;11.80;;;3.42;;
52898;SDS011;38763;53.096;6.062;2022-08-03T04:27:47;11.20;;;3.30;;
52898;SDS011;38763;53.096;6.062;2022-08-03T04:30:16;12.23;;;3.20;;
52898;SDS011;38763;53.096;6.062;2022-08-03T04:32:43;12.20;;;3.35;;
52898;SDS011;38763;53.096;6.062;2022-08-03T04:35:15;14.05;;;3.45;;
52898;SDS011;38763;53.096;6.062;2022-08-03T04:37:42;11.52;;;3.05;;
52898;SDS011;38763;53.096;6.062;2022-08-03T04:40:32;14.70;;;3.40;;
52898;SDS011;38763;53.096;6.062;2022-08-03T04:42:58;11.10;;;3.10;;
52898;SDS011;38763;53.096;6.062;2022-08-03T04:45:25;12.98;;;3.80;;
52898;SDS011;38763;53.096;6.062;2022-08-03T04:47:51;13.80;;;3.33;;
52898;SDS011;38763;53.096;6.062;2022-08-03T04:50:18;11.38;;;3.40;;
52898;SDS011;38763;53.096;6.062;2022-08-03T04:52:44;8.50;;;3.15;;
52898;SDS011;38763;53.096;6.062;2022-08-03T04:55:10;12.25;;;3.28;;
52898;SDS011;38763;53.096;6.062;2022-08-03T04:57:35;10.75;;;4.20;;
52898;SDS011;38763;53.096;6.062;2022-08-03T05:00:01;9.57;;;3.22;;
52898;SDS011;38763;53.096;6.062;2022-08-03T05:02:28;7.38;;;3.47;;
52898;SDS011;38763;53.096;6.062;2022-08-03T05:04:55;8.23;;;3.40;;
52898;SDS011;38763;53.096;6.062;2022-08-03T05:07:21;9.35;;;3.22;;
52898;SDS011;38763;53.096;6.062;2022-08-03T05:09:46;15.20;;;3.38;;
52898;SDS011;38763;53.096;6.062;2022-08-03T05:12:12;11.32;;;3.88;;
52898;SDS011;38763;53.096;6.062;2022-08-03T05:14:37;13.23;;;3.25;;
52898;SDS011;38763;53.096;6.062;2022-08-03T05:17:04;12.25;;;3.30;;
52898;SDS011;38763;53.096;6.062;2022-08-03T05:19:30;10.05;;;3.15;;
52898;SDS011;38763;53.096;6.062;2022-08-03T05:21:56;9.45;;;3.40;;
52898;SDS011;38763;53.096;6.062;2022-08-03T05:24:21;9.20;;;3.40;;
52898;SDS011;38763;53.096;6.062;2022-08-03T05:26:47;10.70;;;3.38;;
52898;SDS011;38763;53.096;6.062;2022-08-03T05:29:12;10.65;;;3.47;;
52898;SDS011;38763;53.096;6.062;2022-08-03T05:31:38;8.57;;;3.03;;
52898;SDS011;38763;53.096;6.062;2022-08-03T05:34:04;9.40;;;3.47;;
52898;SDS011;38763;53.096;6.062;2022-08-03T05:36:30;10.73;;;3.42;;
52898;SDS011;38763;53.096;6.062;2022-08-03T05:38:56;13.98;;;3.25;;
52898;SDS011;38763;53.096;6.062;2022-08-03T05:41:22;11.40;;;3.00;;
52898;SDS011;38763;53.096;6.062;2022-08-03T05:43:47;9.35;;;2.78;;
52898;SDS011;38763;53.096;6.062;2022-08-03T05:46:14;11.75;;;3.35;;
52898;SDS011;38763;53.096;6.062;2022-08-03T05:48:40;10.65;;;2.97;;
52898;SDS011;38763;53.096;6.062;2022-08-03T05:51:06;7.57;;;3.03;;
52898;SDS011;38763;53.096;6.062;2022-08-03T05:53:35;15.55;;;3.20;;
52898;SDS011;38763;53.096;6.062;2022-08-03T05:56:01;11.32;;;3.10;;
52898;SDS011;38763;53.096;6.062;2022-08-03T05:58:27;14.32;;;3.47;;
52898;SDS011;38763;53.096;6.062;2022-08-03T06:00:53;13.82;;;3.22;;
52898;SDS011;38763;53.096;6.062;2022-08-03T06:03:19;12.23;;;3.35;;
52898;SDS011;38763;53.096;6.062;2022-08-03T06:05:44;13.18;;;3.38;;
52898;SDS011;38763;53.096;6.062;2022-08-03T06:08:10;11.30;;;3.00;;
52898;SDS011;38763;53.096;6.062;2022-08-03T06:10:36;10.27;;;3.08;;
52898;SDS011;38763;53.096;6.062;2022-08-03T06:13:02;11.40;;;3.00;;
52898;SDS011;38763;53.096;6.062;2022-08-03T06:15:28;13.70;;;3.53;;
52898;SDS011;38763;53.096;6.062;2022-08-03T06:17:54;11.00;;;3.33;;
52898;SDS011;38763;53.096;6.062;2022-08-03T06:20:21;10.13;;;3.00;;
52898;SDS011;38763;53.096;6.062;2022-08-03T06:22:47;13.73;;;3.47;;
52898;SDS011;38763;53.096;6.062;2022-08-03T06:25:13;10.77;;;3.10;;
52898;SDS011;38763;53.096;6.062;2022-08-03T06:27:38;12.07;;;3.05;;
52898;SDS011;38763;53.096;6.062;2022-08-03T06:30:08;12.50;;;3.53;;
52898;SDS011;38763;53.096;6.062;2022-08-03T06:32:41;12.48;;;3.83;;
52898;SDS011;38763;53.096;6.062;2022-08-03T06:35:07;12.02;;;3.22;;
52898;SDS011;38763;53.096;6.062;2022-08-03T06:37:46;11.43;;;3.72;;
52898;SDS011;38763;53.096;6.062;2022-08-03T06:40:15;13.48;;;4.15;;
52898;SDS011;38763;53.096;6.062;2022-08-03T06:42:42;12.73;;;4.43;;
52898;SDS011;38763;53.096;6.062;2022-08-03T06:45:08;19.30;;;4.28;;
52898;SDS011;38763;53.096;6.062;2022-08-03T06:47:37;15.05;;;4.53;;
52898;SDS011;38763;53.096;6.062;2022-08-03T06:50:04;14.20;;;4.38;;
52898;SDS011;38763;53.096;6.062;2022-08-03T06:52:31;15.63;;;4.40;;
52898;SDS011;38763;53.096;6.062;2022-08-03T06:54:56;14.50;;;4.38;;
52898;SDS011;38763;53.096;6.062;2022-08-03T06:57:22;14.65;;;4.93;;
52898;SDS011;38763;53.096;6.062;2022-08-03T06:59:48;11.55;;;4.47;;
52898;SDS011;38763;53.096;6.062;2022-08-03T07:02:14;16.90;;;4.50;;
52898;SDS011;38763;53.096;6.062;2022-08-03T07:04:39;12.60;;;4.63;;
52898;SDS011;38763;53.096;6.062;2022-08-03T07:07:05;17.65;;;4.97;;
52898;SDS011;38763;53.096;6.062;2022-08-03T07:09:31;14.48;;;4.85;;
52898;SDS011;38763;53.096;6.062;2022-08-03T07:11:56;14.70;;;5.47;;
52898;SDS011;38763;53.096;6.062;2022-08-03T07:14:22;21.60;;;5.50;;
52898;SDS011;38763;53.096;6.062;2022-08-03T07:16:48;16.63;;;5.10;;
52898;SDS011;38763;53.096;6.062;2022-08-03T07:19:14;13.18;;;4.90;;
52898;SDS011;38763;53.096;6.062;2022-08-03T07:21:40;16.00;;;5.28;;
52898;SDS011;38763;53.096;6.062;2022-08-03T07:24:05;17.05;;;5.60;;
52898;SDS011;38763;53.096;6.062;2022-08-03T07:26:31;13.98;;;5.75;;
52898;SDS011;38763;53.096;6.062;2022-08-03T07:28:57;14.05;;;5.90;;
52898;SDS011;38763;53.096;6.062;2022-08-03T07:31:24;14.95;;;5.20;;
52898;SDS011;38763;53.096;6.062;2022-08-03T07:33:50;14.88;;;5.80;;
52898;SDS011;38763;53.096;6.062;2022-08-03T07:36:15;18.05;;;7.10;;
52898;SDS011;38763;53.096;6.062;2022-08-03T07:38:41;11.15;;;5.45;;
52898;SDS011;38763;53.096;6.062;2022-08-03T07:41:07;15.65;;;6.50;;
52898;SDS011;38763;53.096;6.062;2022-08-03T07:43:32;16.90;;;7.22;;
52898;SDS011;38763;53.096;6.062;2022-08-03T07:45:58;16.45;;;6.10;;
52898;SDS011;38763;53.096;6.062;2022-08-03T07:48:23;12.93;;;4.97;;
52898;SDS011;38763;53.096;6.062;2022-08-03T07:50:49;15.35;;;4.93;;
52898;SDS011;38763;53.096;6.062;2022-08-03T07:53:15;16.63;;;5.60;;
52898;SDS011;38763;53.096;6.062;2022-08-03T07:55:41;16.25;;;5.55;;
52898;SDS011;38763;53.096;6.062;2022-08-03T07:58:07;10.98;;;3.80;;
52898;SDS011;38763;53.096;6.062;2022-08-03T08:00:36;15.68;;;4.78;;
52898;SDS011;38763;53.096;6.062;2022-08-03T08:03:02;14.38;;;4.60;;
52898;SDS011;38763;53.096;6.062;2022-08-03T08:05:29;15.90;;;4.82;;
52898;SDS011;38763;53.096;6.062;2022-08-03T08:07:54;12.85;;;4.65;;
52898;SDS011;38763;53.096;6.062;2022-08-03T08:10:20;11.68;;;4.72;;
52898;SDS011;38763;53.096;6.062;2022-08-03T08:12:46;10.32;;;3.83;;
52898;SDS011;38763;53.096;6.062;2022-08-03T08:15:12;15.45;;;5.63;;
52898;SDS011;38763;53.096;6.062;2022-08-03T08:17:41;12.80;;;5.47;;
52898;SDS011;38763;53.096;6.062;2022-08-03T08:20:14;13.68;;;5.07;;
52898;SDS011;38763;53.096;6.062;2022-08-03T08:22:41;11.00;;;4.75;;
52898;SDS011;38763;53.096;6.062;2022-08-03T08:25:07;14.82;;;5.18;;
52898;SDS011;38763;53.096;6.062;2022-08-03T08:27:33;17.05;;;5.78;;
52898;SDS011;38763;53.096;6.062;2022-08-03T08:30:04;20.10;;;5.73;;
52898;SDS011;38763;53.096;6.062;2022-08-03T08:32:31;19.27;;;5.45;;
52898;SDS011;38763;53.096;6.062;2022-08-03T08:34:56;15.63;;;5.63;;
52898;SDS011;38763;53.096;6.062;2022-08-03T08:37:22;11.55;;;5.15;;
52898;SDS011;38763;53.096;6.062;2022-08-03T08:39:48;17.42;;;5.72;;
52898;SDS011;38763;53.096;6.062;2022-08-03T08:42:14;13.63;;;5.75;;
52898;SDS011;38763;53.096;6.062;2022-08-03T08:44:39;30.63;;;6.63;;
52898;SDS011;38763;53.096;6.062;2022-08-03T08:47:05;57.20;;;7.78;;
52898;SDS011;38763;53.096;6.062;2022-08-03T08:49:34;16.10;;;5.13;;
52898;SDS011;38763;53.096;6.062;2022-08-03T08:52:00;13.15;;;5.22;;
52898;SDS011;38763;53.096;6.062;2022-08-03T08:54:28;17.70;;;5.68;;
52898;SDS011;38763;53.096;6.062;2022-08-03T08:56:57;15.85;;;4.97;;
52898;SDS011;38763;53.096;6.062;2022-08-03T08:59:26;19.52;;;5.50;;
52898;SDS011;38763;53.096;6.062;2022-08-03T09:01:58;16.85;;;6.10;;
52898;SDS011;38763;53.096;6.062;2022-08-03T09:04:24;13.10;;;5.53;;
52898;SDS011;38763;53.096;6.062;2022-08-03T09:06:51;12.48;;;6.03;;
52898;SDS011;38763;53.096;6.062;2022-08-03T09:09:17;13.98;;;5.72;;
52898;SDS011;38763;53.096;6.062;2022-08-03T09:11:42;17.85;;;7.18;;
52898;SDS011;38763;53.096;6.062;2022-08-03T09:14:09;14.85;;;6.57;;
52898;SDS011;38763;53.096;6.062;2022-08-03T09:16:35;16.38;;;6.72;;
52898;SDS011;38763;53.096;6.062;2022-08-03T09:19:11;16.85;;;7.10;;
52898;SDS011;38763;53.096;6.062;2022-08-03T09:21:38;17.20;;;7.25;;
52898;SDS011;38763;53.096;6.062;2022-08-03T09:24:04;14.88;;;7.22;;
52898;SDS011;38763;53.096;6.062;2022-08-03T09:26:31;15.30;;;7.50;;
52898;SDS011;38763;53.096;6.062;2022-08-03T09:29:08;16.65;;;6.88;;
52898;SDS011;38763;53.096;6.062;2022-08-03T09:31:35;17.17;;;7.32;;
52898;SDS011;38763;53.096;6.062;2022-08-03T09:34:05;14.10;;;6.22;;
52898;SDS011;38763;53.096;6.062;2022-08-03T09:36:48;15.00;;;5.65;;
52898;SDS011;38763;53.096;6.062;2022-08-03T09:39:18;14.35;;;6.05;;
52898;SDS011;38763;53.096;6.062;2022-08-03T09:41:44;14.95;;;6.78;;
52898;SDS011;38763;53.096;6.062;2022-08-03T09:44:12;18.27;;;6.47;;
52898;SDS011;38763;53.096;6.062;2022-08-03T09:46:48;17.27;;;6.72;;
52898;SDS011;38763;53.096;6.062;2022-08-03T09:49:14;18.55;;;6.93;;
52898;SDS011;38763;53.096;6.062;2022-08-03T09:51:40;20.23;;;6.88;;
52898;SDS011;38763;53.096;6.062;2022-08-03T09:54:06;12.52;;;5.40;;
52898;SDS011;38763;53.096;6.062;2022-08-03T09:59:04;17.42;;;7.22;;
52898;SDS011;38763;53.096;6.062;2022-08-03T10:01:33;15.30;;;6.50;;
52898;SDS011;38763;53.096;6.062;2022-08-03T10:03:59;15.45;;;6.63;;
52898;SDS011;38763;53.096;6.062;2022-08-03T10:06:24;14.80;;;6.50;;
52898;SDS011;38763;53.096;6.062;2022-08-03T10:09:08;17.42;;;6.90;;
52898;SDS011;38763;53.096;6.062;2022-08-03T10:11:40;19.45;;;7.75;;
52898;SDS011;38763;53.096;6.062;2022-08-03T10:14:08;15.48;;;6.30;;
52898;SDS011;38763;53.096;6.062;2022-08-03T10:16:42;14.30;;;6.38;;
52898;SDS011;38763;53.096;6.062;2022-08-03T10:19:09;15.85;;;6.20;;
52898;SDS011;38763;53.096;6.062;2022-08-03T10:21:36;14.77;;;6.00;;
52898;SDS011;38763;53.096;6.062;2022-08-03T10:24:04;16.70;;;6.15;;
52898;SDS011;38763;53.096;6.062;2022-08-03T10:26:34;13.35;;;5.78;;
52898;SDS011;38763;53.096;6.062;2022-08-03T10:29:02;21.17;;;6.63;;
52898;SDS011;38763;53.096;6.062;2022-08-03T10:31:34;14.85;;;6.53;;
52898;SDS011;38763;53.096;6.062;2022-08-03T10:34:03;17.70;;;6.87;;
52898;SDS011;38763;53.096;6.062;2022-08-03T10:36:35;13.82;;;6.50;;
52898;SDS011;38763;53.096;6.062;2022-08-03T10:39:02;18.17;;;6.70;;
52898;SDS011;38763;53.096;6.062;2022-08-03T10:41:32;14.55;;;5.50;;
52898;SDS011;38763;53.096;6.062;2022-08-03T10:44:03;20.00;;;6.90;;
52898;SDS011;38763;53.096;6.062;2022-08-03T10:46:32;21.50;;;6.38;;
52898;SDS011;38763;53.096;6.062;2022-08-03T10:48:59;20.00;;;5.90;;
52898;SDS011;38763;53.096;6.062;2022-08-03T10:51:25;16.40;;;6.05;;
52898;SDS011;38763;53.096;6.062;2022-08-03T10:53:56;14.65;;;5.60;;
52898;SDS011;38763;53.096;6.062;2022-08-03T10:56:36;15.90;;;5.50;;
52898;SDS011;38763;53.096;6.062;2022-08-03T10:59:55;17.38;;;5.63;;
52898;SDS011;38763;53.096;6.062;2022-08-03T11:02:18;19.42;;;6.10;;
52898;SDS011;38763;53.096;6.062;2022-08-03T11:04:44;18.00;;;4.80;;
52898;SDS011;38763;53.096;6.062;2022-08-03T11:09:41;19.05;;;4.72;;
52898;SDS011;38763;53.096;6.062;2022-08-03T11:12:28;17.25;;;4.55;;
52898;SDS011;38763;53.096;6.062;2022-08-03T11:14:56;17.63;;;4.95;;
52898;SDS011;38763;53.096;6.062;2022-08-03T11:17:33;15.00;;;4.50;;
52898;SDS011;38763;53.096;6.062;2022-08-03T11:19:59;16.20;;;3.95;;
52898;SDS011;38763;53.096;6.062;2022-08-03T11:22:25;17.10;;;5.10;;
52898;SDS011;38763;53.096;6.062;2022-08-03T11:25:15;20.48;;;5.15;;
52898;SDS011;38763;53.096;6.062;2022-08-03T11:27:40;17.35;;;4.13;;
52898;SDS011;38763;53.096;6.062;2022-08-03T11:30:07;16.50;;;4.13;;
52898;SDS011;38763;53.096;6.062;2022-08-03T11:37:32;21.15;;;4.55;;
52898;SDS011;38763;53.096;6.062;2022-08-03T11:39:58;18.73;;;4.55;;
52898;SDS011;38763;53.096;6.062;2022-08-03T11:47:16;21.80;;;4.65;;
52898;SDS011;38763;53.096;6.062;2022-08-03T11:49:49;19.05;;;4.63;;
52898;SDS011;38763;53.096;6.062;2022-08-03T11:52:16;17.35;;;4.65;;
52898;SDS011;38763;53.096;6.062;2022-08-03T11:54:43;16.92;;;4.20;;
52898;SDS011;38763;53.096;6.062;2022-08-03T11:57:09;20.60;;;4.65;;
52898;SDS011;38763;53.096;6.062;2022-08-03T11:59:36;17.75;;;3.83;;
52898;SDS011;38763;53.096;6.062;2022-08-03T12:02:08;19.25;;;3.60;;
52898;SDS011;38763;53.096;6.062;2022-08-03T12:07:25;14.57;;;4.20;;
52898;SDS011;38763;53.096;6.062;2022-08-03T12:10:08;16.15;;;4.15;;
52898;SDS011;38763;53.096;6.062;2022-08-03T12:12:35;14.35;;;4.40;;
52898;SDS011;38763;53.096;6.062;2022-08-03T12:15:01;20.60;;;5.07;;
52898;SDS011;38763;53.096;6.062;2022-08-03T12:17:34;20.35;;;4.10;;
52898;SDS011;38763;53.096;6.062;2022-08-03T12:20:02;16.80;;;4.05;;
52898;SDS011;38763;53.096;6.062;2022-08-03T12:22:33;17.80;;;4.32;;
52898;SDS011;38763;53.096;6.062;2022-08-03T12:25:01;14.18;;;4.15;;
52898;SDS011;38763;53.096;6.062;2022-08-03T12:27:31;14.98;;;4.53;;
52898;SDS011;38763;53.096;6.062;2022-08-03T12:29:57;23.10;;;4.53;;
52898;SDS011;38763;53.096;6.062;2022-08-03T12:32:25;19.80;;;5.00;;
52898;SDS011;38763;53.096;6.062;2022-08-03T12:34:52;19.10;;;5.30;;
52898;SDS011;38763;53.096;6.062;2022-08-03T12:37:19;20.67;;;5.00;;
52898;SDS011;38763;53.096;6.062;2022-08-03T12:39:55;18.75;;;5.15;;
52898;SDS011;38763;53.096;6.062;2022-08-03T12:42:35;23.27;;;5.10;;
52898;SDS011;38763;53.096;6.062;2022-08-03T12:45:17;17.65;;;5.60;;
52898;SDS011;38763;53.096;6.062;2022-08-03T12:48:09;20.23;;;5.30;;
52898;SDS011;38763;53.096;6.062;2022-08-03T12:50:37;16.45;;;5.18;;
52898;SDS011;38763;53.096;6.062;2022-08-03T12:53:05;24.02;;;6.45;;
52898;SDS011;38763;53.096;6.062;2022-08-03T12:55:33;16.02;;;5.63;;
52898;SDS011;38763;53.096;6.062;2022-08-03T12:58:02;15.70;;;5.50;;
52898;SDS011;38763;53.096;6.062;2022-08-03T13:00:34;24.08;;;7.22;;
52898;SDS011;38763;53.096;6.062;2022-08-03T13:03:05;15.32;;;5.10;;
52898;SDS011;38763;53.096;6.062;2022-08-03T13:05:40;19.70;;;5.25;;
52898;SDS011;38763;53.096;6.062;2022-08-03T13:08:16;14.02;;;4.85;;
52898;SDS011;38763;53.096;6.062;2022-08-03T13:10:43;21.00;;;5.03;;
52898;SDS011;38763;53.096;6.062;2022-08-03T13:13:10;19.40;;;4.95;;
52898;SDS011;38763;53.096;6.062;2022-08-03T13:15:36;12.18;;;4.25;;
52898;SDS011;38763;53.096;6.062;2022-08-03T13:18:01;16.23;;;4.90;;
52898;SDS011;38763;53.096;6.062;2022-08-03T13:20:27;20.63;;;5.05;;
52898;SDS011;38763;53.096;6.062;2022-08-03T13:22:52;17.38;;;4.93;;
52898;SDS011;38763;53.096;6.062;2022-08-03T13:25:18;16.15;;;5.40;;
52898;SDS011;38763;53.096;6.062;2022-08-03T13:27:44;17.92;;;4.90;;
52898;SDS011;38763;53.096;6.062;2022-08-03T13:30:10;14.80;;;4.93;;
52898;SDS011;38763;53.096;6.062;2022-08-03T13:32:36;18.35;;;4.18;;
52898;SDS011;38763;53.096;6.062;2022-08-03T13:35:02;18.77;;;4.38;;
52898;SDS011;38763;53.096;6.062;2022-08-03T13:37:30;14.75;;;4.30;;
52898;SDS011;38763;53.096;6.062;2022-08-03T13:39:56;14.63;;;4.70;;
52898;SDS011;38763;53.096;6.062;2022-08-03T13:42:23;15.50;;;4.70;;
52898;SDS011;38763;53.096;6.062;2022-08-03T13:44:49;16.23;;;4.53;;
52898;SDS011;38763;53.096;6.062;2022-08-03T13:47:15;15.90;;;4.70;;
52898;SDS011;38763;53.096;6.062;2022-08-03T13:49:40;20.15;;;5.10;;
52898;SDS011;38763;53.096;6.062;2022-08-03T13:52:06;20.85;;;5.00;;
52898;SDS011;38763;53.096;6.062;2022-08-03T13:54:32;16.40;;;5.15;;
52898;SDS011;38763;53.096;6.062;2022-08-03T13:56:58;16.65;;;4.63;;
52898;SDS011;38763;53.096;6.062;2022-08-03T13:59:24;16.40;;;4.90;;
52898;SDS011;38763;53.096;6.062;2022-08-03T14:01:51;13.63;;;4.85;;
52898;SDS011;38763;53.096;6.062;2022-08-03T14:04:17;19.30;;;5.45;;
52898;SDS011;38763;53.096;6.062;2022-08-03T14:06:43;13.27;;;4.68;;
52898;SDS011;38763;53.096;6.062;2022-08-03T14:09:12;17.75;;;4.93;;
52898;SDS011;38763;53.096;6.062;2022-08-03T14:11:41;17.83;;;4.20;;
52898;SDS011;38763;53.096;6.062;2022-08-03T14:14:08;14.85;;;4.65;;
52898;SDS011;38763;53.096;6.062;2022-08-03T14:16:34;22.50;;;4.50;;
52898;SDS011;38763;53.096;6.062;2022-08-03T14:19:00;20.00;;;4.85;;
52898;SDS011;38763;53.096;6.062;2022-08-03T14:21:25;11.65;;;4.18;;
52898;SDS011;38763;53.096;6.062;2022-08-03T14:23:51;15.68;;;4.15;;
52898;SDS011;38763;53.096;6.062;2022-08-03T14:26:17;17.77;;;4.30;;
52898;SDS011;38763;53.096;6.062;2022-08-03T14:28:44;18.05;;;4.00;;
52898;SDS011;38763;53.096;6.062;2022-08-03T14:31:10;14.85;;;4.25;;
52898;SDS011;38763;53.096;6.062;2022-08-03T14:33:35;16.20;;;4.13;;
52898;SDS011;38763;53.096;6.062;2022-08-03T14:36:01;14.00;;;3.90;;
52898;SDS011;38763;53.096;6.062;2022-08-03T14:38:26;13.88;;;3.55;;
52898;SDS011;38763;53.096;6.062;2022-08-03T14:40:52;16.80;;;4.13;;
52898;SDS011;38763;53.096;6.062;2022-08-03T14:43:18;13.80;;;4.10;;
52898;SDS011;38763;53.096;6.062;2022-08-03T14:45:50;16.40;;;3.88;;
52898;SDS011;38763;53.096;6.062;2022-08-03T14:48:18;13.00;;;4.15;;
52898;SDS011;38763;53.096;6.062;2022-08-03T14:50:44;11.82;;;3.92;;
52898;SDS011;38763;53.096;6.062;2022-08-03T14:53:10;14.80;;;4.32;;
52898;SDS011;38763;53.096;6.062;2022-08-03T14:55:35;13.95;;;4.20;;
52898;SDS011;38763;53.096;6.062;2022-08-03T14:58:01;14.48;;;4.43;;
52898;SDS011;38763;53.096;6.062;2022-08-03T15:00:32;13.85;;;4.18;;
52898;SDS011;38763;53.096;6.062;2022-08-03T15:02:59;15.48;;;3.83;;
52898;SDS011;38763;53.096;6.062;2022-08-03T15:05:27;15.27;;;4.20;;